x

9441102 - Westport, Wa (wptw1) Weather Station

1:36pm - Tue 16th Oct 2018 All times are PDT. -7 hours from GMT.

  • Wind
    18mph, 22mph gusts
  • Sea Temp 54°f
  • Air Temp 65°f
  • Sea Pressure 1023.3mb
  • 9441102 - Westport, Wa
  • 9441102 - Westport, Wa

More Historic Weather Station data

Upgrade to MSW Pro to gain access to the past 30 days of data for over 8000 Wavebouys and Weather Stations around the globe.

Join

Comparision Forecast

View Surf forecast
   
Tue 10/16 1:36pm 18 22 mph 1023.3mb 54f 65f
1:30pm 18 23 mph 1023.4mb 54f 65f
1:24pm 17 22 mph 1023.4mb 54f 65f
1:18pm 18 23 mph 1023.6mb 54f 64f
1:12pm 18 23 mph 1023.6mb 54f 64f
1:06pm 18 22 mph 1023.7mb 54f 64f
1:00pm 17 22 mph 1023.8mb 54f 64f
12:36pm 17 22 mph 1024.1mb 54f 63f
12:30pm 15 20 mph 1024.1mb 54f 63f
12:24pm 15 21 mph 1024.1mb 54f 63f
12:18pm 15 18 mph 1024.2mb 54f 62f
12:12pm 14 18 mph 1024.2mb 54f 62f
12:06pm 14 17 mph 1024.2mb 54f 62f
12:00pm 11 18 mph 1024.2mb 54f 62f
11:36am 16 21 mph 1024.2mb 54f 60f
11:30am 17 21 mph 1024.2mb 54f 59f
11:24am 17 21 mph 1024.1mb 54f 59f
11:18am 17 21 mph 1024.1mb 54f 59f
11:12am 16 21 mph 1024mb 54f 59f
11:06am 16 21 mph 1024mb 54f 59f
11:00am 20 22 mph 1024mb 54f 58f
10:36am 18 22 mph 1024.1mb 54f 58f
10:30am 17 21 mph 1024.1mb 54f 57f
10:24am 18 22 mph 1024mb 54f 57f
10:18am 18 22 mph 1024.1mb 54f 57f
10:12am 20 23 mph 1024.1mb 54f 56f
10:06am 20 23 mph 1024mb 54f 56f
10:00am 20 22 mph 1024mb 54f 56f
8:36am 18 21 mph 1023.8mb 53f 53f
8:30am 17 21 mph 1023.8mb 53f 53f
8:24am 16 18 mph 1023.8mb 53f 53f
8:18am 16 21 mph 1023.8mb 53f 53f
8:12am 18 21 mph 1023.8mb 53f 53f
8:06am 17 20 mph 1023.8mb 53f 53f
8:00am 15 18 mph 1023.7mb 53f 53f
7:36am 15 17 mph 1023.8mb 53f 52f
7:30am 16 17 mph 1023.9mb 53f 52f
7:24am 16 17 mph 1023.9mb 54f 52f
7:18am 15 17 mph 1023.9mb 54f 52f
7:12am 15 17 mph 1023.9mb 54f 52f
7:06am 15 17 mph 1023.9mb 54f 52f
7:00am 16 18 mph 1023.9mb 54f 52f
6:36am 15 17 mph 1023.9mb 54f 52f
6:30am 16 18 mph 1023.9mb 55f 52f
6:24am 15 18 mph 1023.9mb 55f 52f
6:18am 17 20 mph 1023.8mb 55f 53f
6:12am 17 20 mph 1023.8mb 55f 52f
6:06am 16 18 mph 1023.8mb 55f 52f
6:00am 14 16 mph 1023.8mb 55f 53f
5:36am 15 17 mph 1023.8mb 55f 53f
5:30am 15 16 mph 1023.8mb 55f 53f
5:24am 13 16 mph 1023.8mb 55f 52f
5:18am 13 16 mph 1023.8mb 55f 53f
5:12am 15 20 mph 1023.8mb 55f 53f
5:06am 18 21 mph 1023.9mb 55f 53f
5:00am 18 21 mph 1023.9mb 55f 53f
4:36am 15 16 mph 1023.9mb 55f 53f
4:30am 14 16 mph 1023.9mb 55f 53f
4:24am 13 15 mph 1023.9mb 55f 53f
4:18am 13 15 mph 1023.9mb 55f 53f
4:12am 11 13 mph 1024mb 55f 53f
4:06am 10 13 mph 1024mb 55f 53f
4:00am 10 11 mph 1024mb 55f 53f
3:36am 13 14 mph 1024mb 55f 53f
3:30am 14 16 mph 1024mb 55f 53f
3:24am 14 16 mph 1024mb 55f 53f
3:18am 15 17 mph 1024.1mb 55f 53f
3:12am 13 16 mph 1024mb 55f 53f
3:06am 15 20 mph 1024mb 55f 53f
3:00am 15 20 mph 1024mb 55f 53f
2:36am 16 21 mph 1024.1mb 55f 54f
2:30am 18 21 mph 1024.1mb 55f 54f
2:24am 17 21 mph 1024.2mb 55f 54f
2:18am 17 20 mph 1024.2mb 55f 54f
2:12am 16 20 mph 1024.1mb 55f 54f
2:06am 16 21 mph 1024.2mb 55f 54f
2:00am 17 21 mph 1024.1mb 55f 54f
1:36am 14 17 mph 1024.1mb 55f 55f
1:30am 14 16 mph 1024.1mb 55f 55f
1:24am 15 20 mph 1024.2mb 55f 55f
1:18am 16 20 mph 1024.1mb 55f 55f
1:12am 17 21 mph 1024.1mb 55f 55f
1:06am 18 21 mph 1024.2mb 55f 55f
1:00am 17 20 mph 1024.2mb 55f 55f